Time;durP1;ratioP1;P1;durP2;ratioP2;P2;SDS_P1;SDS_P2;PMS_P1;PMS_P2;Temp;Humidity;BMP_temperature;BMP_pressure;BME280_temperature;BME280_humidity;BME280_pressure;Samples;Min_cycle;Max_cycle;Signal;HPM_P1;HPM_P2
2024/01/02 00:01:28;;;;;;;8.87;2.50;;;12.70;49.30;;;;;;5003982;28;20281;-57
2024/01/02 00:03:53;;;;;;;8.23;2.13;;;12.60;49.50;;;;;;5006110;28;20665;-58
2024/01/02 00:06:19;;;;;;;6.10;1.90;;;12.60;49.40;;;;;;4995969;28;20212;-58
2024/01/02 00:08:46;;;;;;;6.20;2.30;;;12.50;50.00;;;;;;5000760;28;20186;-57
2024/01/02 00:11:12;;;;;;;4.87;1.67;;;12.40;49.80;;;;;;5001682;28;20636;-58
2024/01/02 00:13:38;;;;;;;3.80;2.53;;;12.30;50.00;;;;;;5007029;28;20452;-58
2024/01/02 00:16:04;;;;;;;4.57;1.43;;;12.20;50.10;;;;;;4998952;28;20853;-57
2024/01/02 00:18:29;;;;;;;3.13;1.50;;;12.20;50.50;;;;;;5000034;28;20316;-57
2024/01/02 00:20:56;;;;;;;2.17;1.10;;;12.20;50.30;;;;;;5000187;28;20179;-57
2024/01/02 00:23:22;;;;;;;5.07;1.47;;;12.10;50.40;;;;;;5000210;28;20196;-57
2024/01/02 00:25:47;;;;;;;7.20;2.00;;;12.20;50.30;;;;;;5003719;28;20457;-56
2024/01/02 00:28:13;;;;;;;3.00;2.00;;;12.40;50.10;;;;;;5003690;28;20448;-57
2024/01/02 00:30:40;;;;;;;6.60;2.00;;;12.40;50.00;;;;;;5005150;28;20575;-53
2024/01/02 00:33:06;;;;;;;3.63;1.47;;;12.30;49.90;;;;;;5003883;28;20183;-58
2024/01/02 00:35:32;;;;;;;2.07;1.30;;;12.20;50.10;;;;;;5002638;28;20467;-57
2024/01/02 00:37:57;;;;;;;3.47;1.73;;;12.20;50.20;;;;;;5000350;28;20440;-56
2024/01/02 00:40:23;;;;;;;2.97;1.70;;;12.10;50.40;;;;;;5005018;28;20445;-55
2024/01/02 00:42:48;;;;;;;3.57;1.30;;;11.90;50.60;;;;;;5005372;28;20189;-57
2024/01/02 00:45:14;;;;;;;4.57;1.20;;;11.90;51.20;;;;;;5005863;28;20228;-58
2024/01/02 00:47:40;;;;;;;3.63;2.57;;;12.00;50.90;;;;;;4996988;28;20170;-57
2024/01/02 00:50:06;;;;;;;3.20;1.30;;;12.20;50.60;;;;;;5001953;28;20301;-57
2024/01/02 00:52:32;;;;;;;7.13;2.33;;;12.20;50.30;;;;;;5004319;28;20208;-58
2024/01/02 00:54:57;;;;;;;3.30;1.27;;;12.30;50.50;;;;;;5003364;28;20436;-57
2024/01/02 00:57:23;;;;;;;3.50;1.40;;;12.30;50.20;;;;;;4995952;28;20190;-58
2024/01/02 00:59:48;;;;;;;4.43;1.00;;;12.30;50.20;;;;;;5002375;28;20217;-56
2024/01/02 01:02:14;;;;;;;2.37;1.10;;;12.30;50.40;;;;;;5002098;28;20192;-59
2024/01/02 01:04:43;;;;;;;5.10;1.50;;;12.40;50.50;;;;;;5003317;28;20232;-58
2024/01/02 01:07:10;;;;;;;2.37;1.60;;;12.40;50.30;;;;;;5004722;28;20209;-58
2024/01/02 01:09:35;;;;;;;3.90;1.30;;;12.40;50.30;;;;;;5004323;28;20472;-58
2024/01/02 01:12:02;;;;;;;3.83;1.90;;;12.20;50.30;;;;;;5001770;28;20445;-58
2024/01/02 01:14:28;;;;;;;4.30;1.50;;;12.20;50.70;;;;;;5007940;28;20188;-57
2024/01/02 01:16:54;;;;;;;6.30;1.63;;;12.20;50.60;;;;;;5002445;28;20460;-56
2024/01/02 01:19:19;;;;;;;1.87;1.20;;;12.40;50.50;;;;;;5006158;28;20280;-58
2024/01/02 01:21:45;;;;;;;3.30;1.17;;;12.30;50.30;;;;;;5000263;28;21709;-58
2024/01/02 01:24:10;;;;;;;4.20;1.40;;;12.30;50.50;;;;;;5006435;28;20217;-58
2024/01/02 01:26:36;;;;;;;4.10;1.43;;;12.40;50.40;;;;;;5000114;28;20211;-56
2024/01/02 01:29:02;;;;;;;3.00;1.80;;;12.50;50.40;;;;;;4998777;28;20206;-57
2024/01/02 01:31:28;;;;;;;1.70;1.60;;;12.50;50.40;;;;;;5000336;28;20205;-58
2024/01/02 01:33:54;;;;;;;4.20;1.73;;;12.40;50.20;;;;;;5005289;28;20995;-58
2024/01/02 01:36:19;;;;;;;4.10;1.67;;;12.40;50.50;;;;;;5005204;28;20914;-58
2024/01/02 01:38:45;;;;;;;2.70;1.70;;;12.20;50.50;;;;;;4999353;28;20189;-58
2024/01/02 01:41:11;;;;;;;2.03;1.13;;;12.20;51.00;;;;;;5000617;28;20202;-58
2024/01/02 01:43:36;;;;;;;2.73;1.20;;;12.30;50.90;;;;;;5005485;28;20182;-57
2024/01/02 01:46:04;;;;;;;2.20;1.30;;;12.20;50.80;;;;;;5001997;28;20305;-57
2024/01/02 01:48:29;;;;;;;2.50;1.70;;;12.20;50.90;;;;;;5005168;28;20658;-58
2024/01/02 01:50:56;;;;;;;3.80;1.60;;;12.40;50.80;;;;;;5002840;28;20488;-58
2024/01/02 01:53:22;;;;;;;2.20;1.30;;;12.40;50.80;;;;;;5001444;28;20654;-58
2024/01/02 01:55:48;;;;;;;1.50;1.40;;;12.40;50.80;;;;;;5001594;28;20461;-59
2024/01/02 01:58:14;;;;;;;1.90;1.30;;;12.30;51.10;;;;;;5005265;28;20445;-58
2024/01/02 02:00:40;;;;;;;2.97;1.60;;;12.30;51.00;;;;;;5004701;28;20437;-58
2024/01/02 02:03:06;;;;;;;2.57;1.77;;;12.40;50.90;;;;;;5001484;28;20456;-56
2024/01/02 02:05:34;;;;;;;2.90;2.07;;;12.40;50.90;;;;;;5006735;28;20289;-56
2024/01/02 02:08:00;;;;;;;2.80;1.47;;;12.50;50.90;;;;;;5006214;28;20432;-58
2024/01/02 02:10:25;;;;;;;2.20;1.40;;;12.40;50.60;;;;;;5007866;28;20469;-57
2024/01/02 02:12:51;;;;;;;2.07;1.10;;;12.40;51.40;;;;;;5006883;28;20185;-56
2024/01/02 02:15:17;;;;;;;1.60;1.40;;;12.40;51.00;;;;;;5006363;28;20233;-56
2024/01/02 02:17:42;;;;;;;1.50;1.40;;;12.40;50.80;;;;;;5005255;28;20624;-58
2024/01/02 02:20:08;;;;;;;1.60;1.37;;;12.40;50.90;;;;;;5006520;28;20274;-58
2024/01/02 02:22:36;;;;;;;2.00;1.27;;;12.50;50.80;;;;;;5004378;28;20565;-58
2024/01/02 02:25:02;;;;;;;5.23;1.47;;;12.60;50.80;;;;;;5006529;28;20716;-58
2024/01/02 02:27:28;;;;;;;2.73;1.50;;;12.20;51.00;;;;;;5004413;28;20440;-58
2024/01/02 02:29:54;;;;;;;1.07;1.00;;;12.30;51.40;;;;;;5002502;28;20844;-55
2024/01/02 02:32:21;;;;;;;2.10;1.20;;;12.40;51.40;;;;;;5006356;28;20444;-57
2024/01/02 02:34:47;;;;;;;1.97;1.10;;;12.40;51.10;;;;;;5006689;28;20241;-58
2024/01/02 02:37:12;;;;;;;1.87;0.93;;;12.50;51.10;;;;;;5005889;28;20488;-56
2024/01/02 02:39:38;;;;;;;1.40;1.00;;;12.40;51.40;;;;;;5007834;28;20217;-58
2024/01/02 02:42:04;;;;;;;2.30;0.80;;;12.40;51.50;;;;;;5003534;28;20185;-57
2024/01/02 02:44:31;;;;;;;2.73;1.07;;;12.40;51.40;;;;;;5005662;28;20661;-58
2024/01/02 02:46:57;;;;;;;1.70;1.00;;;12.40;51.40;;;;;;4998970;28;20209;-57
2024/01/02 02:49:22;;;;;;;1.27;0.83;;;12.40;51.50;;;;;;5002025;28;20993;-55
2024/01/02 02:51:48;;;;;;;1.27;0.80;;;12.50;51.40;;;;;;5001083;28;20225;-57
2024/01/02 02:54:13;;;;;;;2.83;0.90;;;12.50;51.30;;;;;;5005340;28;20197;-59
2024/01/02 02:56:39;;;;;;;2.33;1.17;;;12.20;51.60;;;;;;5007099;28;20598;-57
2024/01/02 02:59:05;;;;;;;1.60;0.90;;;12.20;52.00;;;;;;5006547;28;20198;-58
2024/01/02 03:01:31;;;;;;;2.10;0.90;;;12.40;52.00;;;;;;5004741;28;20817;-55
2024/01/02 03:03:57;;;;;;;0.90;0.80;;;12.50;51.60;;;;;;5004656;28;20532;-58
2024/01/02 03:06:22;;;;;;;1.20;0.67;;;12.70;51.50;;;;;;5001500;28;20201;-59
2024/01/02 03:08:48;;;;;;;1.10;1.10;;;12.60;51.30;;;;;;5007700;28;20233;-57
2024/01/02 03:11:14;;;;;;;1.10;0.80;;;12.60;51.30;;;;;;5005108;28;20226;-58
2024/01/02 03:13:39;;;;;;;2.00;1.00;;;12.60;51.30;;;;;;5007713;28;20815;-58
2024/01/02 03:16:07;;;;;;;3.37;1.20;;;12.70;51.30;;;;;;5004982;28;20209;-59
2024/01/02 03:18:33;;;;;;;3.23;0.93;;;12.50;51.30;;;;;;5002669;28;20182;-58
2024/01/02 03:20:58;;;;;;;4.53;1.17;;;12.50;51.50;;;;;;5004137;28;20444;-56
2024/01/02 03:23:24;;;;;;;3.37;0.90;;;12.30;51.80;;;;;;5005548;28;20218;-57
2024/01/02 03:25:49;;;;;;;1.20;0.80;;;12.20;52.10;;;;;;5001629;28;20202;-55
2024/01/02 03:28:15;;;;;;;1.50;0.90;;;12.30;52.30;;;;;;5004087;28;20194;-57
2024/01/02 03:30:40;;;;;;;1.10;0.80;;;12.40;52.30;;;;;;5005933;28;20765;-57
2024/01/02 03:33:06;;;;;;;1.40;0.80;;;12.20;52.50;;;;;;5005081;28;20182;-58
2024/01/02 03:35:32;;;;;;;0.90;0.67;;;12.30;52.70;;;;;;5006424;28;20202;-58
2024/01/02 03:37:57;;;;;;;2.23;0.77;;;12.30;52.80;;;;;;5004040;28;20188;-57
2024/01/02 03:40:23;;;;;;;2.40;0.93;;;12.40;53.00;;;;;;5003670;28;20210;-57
2024/01/02 03:42:48;;;;;;;0.93;0.80;;;12.50;53.10;;;;;;4999824;28;20178;-59
2024/01/02 03:45:14;;;;;;;1.07;0.80;;;12.40;54.00;;;;;;5002745;28;20194;-59
2024/01/02 03:47:40;;;;;;;0.80;0.70;;;12.40;54.30;;;;;;5003666;28;20174;-57
2024/01/02 03:50:06;;;;;;;0.83;0.80;;;12.30;54.80;;;;;;5003123;28;20275;-57
2024/01/02 03:52:32;;;;;;;2.10;0.70;;;12.40;55.20;;;;;;5001074;28;20597;-57
2024/01/02 03:54:57;;;;;;;0.60;0.60;;;12.50;55.30;;;;;;5003293;28;20452;-58
2024/01/02 03:57:23;;;;;;;2.00;0.80;;;12.30;55.30;;;;;;5002192;28;20669;-59
2024/01/02 03:59:48;;;;;;;0.80;0.70;;;12.30;56.00;;;;;;5007357;28;20566;-58
2024/01/02 04:02:14;;;;;;;0.80;0.70;;;12.10;56.50;;;;;;5004776;28;20186;-58
2024/01/02 04:04:40;;;;;;;1.27;0.93;;;12.20;56.60;;;;;;5003845;28;20689;-58
2024/01/02 04:07:05;;;;;;;0.90;0.60;;;12.00;56.30;;;;;;5005421;28;20763;-59
2024/01/02 04:09:31;;;;;;;0.60;0.60;;;12.00;56.90;;;;;;4998008;28;20230;-59
2024/01/02 04:11:56;;;;;;;3.13;1.00;;;12.10;56.90;;;;;;5000950;28;20240;-58
2024/01/02 04:14:22;;;;;;;0.80;0.70;;;12.00;57.00;;;;;;4997487;28;20189;-59
2024/01/02 04:16:48;;;;;;;0.77;0.60;;;11.70;57.80;;;;;;5001366;28;22375;-58
2024/01/02 04:19:13;;;;;;;1.00;0.80;;;11.80;58.50;;;;;;5004611;28;20186;-58
2024/01/02 04:21:39;;;;;;;1.83;0.77;;;11.70;58.50;;;;;;5001708;28;20217;-59
2024/01/02 04:24:05;;;;;;;0.70;0.70;;;11.50;58.80;;;;;;5005570;28;20188;-59
2024/01/02 04:26:30;;;;;;;0.60;0.60;;;11.50;59.10;;;;;;5004357;28;20210;-58
2024/01/02 04:28:56;;;;;;;0.60;0.60;;;11.40;59.40;;;;;;5003145;28;20182;-58
2024/01/02 04:31:21;;;;;;;0.97;0.70;;;11.30;59.50;;;;;;5005644;28;20325;-59
2024/01/02 04:33:47;;;;;;;0.70;0.60;;;11.40;60.20;;;;;;5007094;28;20566;-58
2024/01/02 04:36:13;;;;;;;1.13;0.60;;;11.20;60.60;;;;;;5002672;28;20211;-59
2024/01/02 04:38:38;;;;;;;0.57;0.57;;;11.10;61.10;;;;;;5003500;28;20241;-58
2024/01/02 04:41:04;;;;;;;0.80;0.50;;;11.10;61.80;;;;;;5002756;28;20194;-59
2024/01/02 04:43:29;;;;;;;0.70;0.70;;;11.20;61.90;;;;;;5004789;28;20261;-58
2024/01/02 04:45:55;;;;;;;2.63;0.50;;;11.10;62.00;;;;;;5002249;28;20213;-58
2024/01/02 04:48:21;;;;;;;0.80;0.80;;;11.30;62.30;;;;;;5000569;28;20217;-60
2024/01/02 04:50:47;;;;;;;0.50;0.50;;;11.40;62.20;;;;;;5006191;28;20226;-59
2024/01/02 04:53:13;;;;;;;0.80;0.60;;;11.50;62.40;;;;;;5006034;28;20182;-57
2024/01/02 04:55:38;;;;;;;2.83;0.70;;;11.50;61.90;;;;;;5002857;28;21007;-60
2024/01/02 04:58:04;;;;;;;0.50;0.50;;;11.40;61.80;;;;;;5006811;28;20568;-59
2024/01/02 05:00:30;;;;;;;0.50;0.43;;;11.40;62.50;;;;;;5001669;28;20194;-59
2024/01/02 05:02:57;;;;;;;0.50;0.50;;;11.50;62.60;;;;;;5000891;28;20439;-59
2024/01/02 05:05:22;;;;;;;0.70;0.70;;;11.20;62.50;;;;;;5007269;28;20217;-58
2024/01/02 05:07:48;;;;;;;0.60;0.60;;;11.10;63.20;;;;;;5002340;28;20959;-58
2024/01/02 05:10:13;;;;;;;0.90;0.70;;;11.00;63.90;;;;;;4999471;28;20226;-59
2024/01/02 05:12:39;;;;;;;2.27;0.53;;;11.00;65.10;;;;;;5008139;28;20276;-57
2024/01/02 05:15:05;;;;;;;0.90;0.60;;;11.10;64.60;;;;;;5005121;28;21001;-59
2024/01/02 05:17:30;;;;;;;0.70;0.60;;;11.10;64.20;;;;;;5001145;28;20182;-59
2024/01/02 05:19:56;;;;;;;1.10;0.70;;;11.10;64.60;;;;;;4999536;28;20448;-58
2024/01/02 05:22:22;;;;;;;0.70;0.60;;;11.00;64.60;;;;;;5002575;28;20193;-58
2024/01/02 05:24:47;;;;;;;1.00;0.80;;;11.00;64.60;;;;;;5005286;28;20204;-58
2024/01/02 05:27:14;;;;;;;1.10;0.60;;;11.00;64.40;;;;;;5006597;28;20214;-59
2024/01/02 05:29:40;;;;;;;0.80;0.60;;;10.90;64.90;;;;;;5006630;28;20248;-59
2024/01/02 05:32:06;;;;;;;0.90;0.60;;;11.10;65.50;;;;;;5001322;28;20449;-58
2024/01/02 05:34:31;;;;;;;0.60;0.57;;;10.90;65.50;;;;;;5002921;28;20277;-58
2024/01/02 05:36:57;;;;;;;1.27;1.17;;;11.00;65.60;;;;;;5002292;28;20793;-58
2024/01/02 05:39:22;;;;;;;0.63;0.60;;;10.70;65.70;;;;;;5009332;28;20251;-58
2024/01/02 05:41:48;;;;;;;0.60;0.60;;;10.80;66.20;;;;;;5008600;28;20194;-58
2024/01/02 05:44:13;;;;;;;1.70;0.60;;;10.90;66.30;;;;;;5008071;28;20280;-59
2024/01/02 05:46:39;;;;;;;0.87;0.50;;;10.80;66.20;;;;;;5002147;28;20237;-58
2024/01/02 05:49:04;;;;;;;1.37;0.60;;;10.70;66.40;;;;;;5007592;28;20265;-57
2024/01/02 05:51:30;;;;;;;2.07;0.90;;;10.80;66.80;;;;;;5006900;28;20248;-59
2024/01/02 05:53:56;;;;;;;1.13;0.60;;;10.90;67.20;;;;;;5005769;28;20186;-58
2024/01/02 05:56:22;;;;;;;1.20;0.70;;;11.00;66.80;;;;;;5002550;28;20206;-59
2024/01/02 05:58:48;;;;;;;3.03;0.80;;;11.00;66.60;;;;;;5006262;28;20265;-59
2024/01/02 06:01:13;;;;;;;0.60;0.57;;;10.90;66.60;;;;;;5000424;28;20540;-59
2024/01/02 06:03:39;;;;;;;0.73;0.60;;;10.90;67.00;;;;;;5006928;28;20202;-59
2024/01/02 06:06:05;;;;;;;1.10;0.70;;;10.80;67.50;;;;;;5007011;28;20198;-59
2024/01/02 06:08:31;;;;;;;0.87;0.70;;;10.70;68.20;;;;;;5005768;28;20189;-57
2024/01/02 06:10:57;;;;;;;0.57;0.57;;;10.70;68.40;;;;;;5005319;28;20504;-59
2024/01/02 06:13:24;;;;;;;1.03;0.60;;;10.70;68.10;;;;;;5006004;28;20248;-58
2024/01/02 06:15:49;;;;;;;4.63;0.77;;;10.60;68.70;;;;;;5008077;28;20504;-59
2024/01/02 06:18:15;;;;;;;0.97;0.80;;;10.60;68.50;;;;;;5006671;28;20194;-56
2024/01/02 06:20:40;;;;;;;0.80;0.67;;;10.70;68.60;;;;;;5001155;28;20189;-58
2024/01/02 06:23:06;;;;;;;0.60;0.60;;;10.70;68.40;;;;;;5007943;28;20272;-58
2024/01/02 06:25:32;;;;;;;0.80;0.63;;;10.90;68.20;;;;;;5009885;28;20202;-58
2024/01/02 06:27:57;;;;;;;0.80;0.60;;;10.80;67.70;;;;;;5008024;28;20434;-59
2024/01/02 06:30:23;;;;;;;0.87;0.60;;;10.90;68.30;;;;;;5007377;28;20227;-58
2024/01/02 06:32:49;;;;;;;0.60;0.60;;;10.80;68.40;;;;;;5006186;28;20201;-60
2024/01/02 06:35:15;;;;;;;1.03;0.60;;;10.80;68.30;;;;;;5003323;28;20186;-60
2024/01/02 06:37:40;;;;;;;1.27;0.80;;;10.90;68.60;;;;;;5004153;28;20455;-60
2024/01/02 06:40:08;;;;;;;0.60;0.60;;;11.00;68.10;;;;;;5004144;28;20214;-58
2024/01/02 06:42:34;;;;;;;0.70;0.70;;;11.10;67.60;;;;;;5005546;28;20218;-60
2024/01/02 06:44:59;;;;;;;1.47;0.50;;;11.30;66.80;;;;;;5006454;28;20507;-57
2024/01/02 06:47:25;;;;;;;1.57;0.70;;;11.30;66.40;;;;;;5000448;28;20428;-58
2024/01/02 06:49:51;;;;;;;0.60;0.50;;;11.20;66.20;;;;;;5005516;28;20221;-59
2024/01/02 06:52:16;;;;;;;0.70;0.70;;;11.40;66.10;;;;;;4998544;28;20297;-59
2024/01/02 06:54:42;;;;;;;3.10;0.60;;;11.30;65.90;;;;;;5007201;28;20190;-58
2024/01/02 06:57:08;;;;;;;0.60;0.60;;;11.30;65.80;;;;;;5003330;28;20727;-58
2024/01/02 06:59:33;;;;;;;0.60;0.60;;;11.30;66.30;;;;;;5006356;28;20267;-59
2024/01/02 07:01:59;;;;;;;2.00;0.90;;;11.40;66.20;;;;;;5003310;28;20441;-59
2024/01/02 07:04:24;;;;;;;0.87;0.67;;;11.50;66.00;;;;;;5007586;28;20701;-58
2024/01/02 07:06:50;;;;;;;1.37;0.60;;;11.50;65.70;;;;;;5000784;28;20681;-60
2024/01/02 07:09:16;;;;;;;0.70;0.70;;;11.40;65.60;;;;;;5005382;28;20204;-58
2024/01/02 07:11:41;;;;;;;0.80;0.70;;;11.30;66.10;;;;;;5004611;28;20305;-58
2024/01/02 07:14:07;;;;;;;1.77;1.07;;;11.00;66.70;;;;;;5008781;28;20320;-58
2024/01/02 07:16:32;;;;;;;0.67;0.63;;;11.10;67.90;;;;;;5003555;28;20377;-57
2024/01/02 07:18:58;;;;;;;0.67;0.60;;;11.20;67.30;;;;;;5005867;28;20308;-59
2024/01/02 07:21:23;;;;;;;0.50;0.50;;;11.20;66.90;;;;;;4997469;28;20194;-59
2024/01/02 07:23:49;;;;;;;0.50;0.50;;;11.40;66.70;;;;;;5001833;28;20205;-59
2024/01/02 07:26:15;;;;;;;2.50;1.30;;;11.60;66.10;;;;;;5007937;28;20677;-59
2024/01/02 07:28:40;;;;;;;0.60;0.50;;;11.70;65.40;;;;;;5002433;28;20664;-57
2024/01/02 07:31:06;;;;;;;0.50;0.50;;;11.50;65.50;;;;;;5004464;28;20760;-57
2024/01/02 07:33:31;;;;;;;0.60;0.60;;;11.50;65.80;;;;;;5006688;28;20178;-59
2024/01/02 07:35:57;;;;;;;0.83;0.80;;;11.60;66.10;;;;;;5003659;28;20232;-59
2024/01/02 07:38:26;;;;;;;0.60;0.60;;;11.60;65.60;;;;;;5009995;28;20347;-60
2024/01/02 07:40:54;;;;;;;1.13;0.50;;;11.40;66.40;;;;;;5003422;28;20182;-58
2024/01/02 07:43:22;;;;;;;1.47;0.70;;;11.50;66.60;;;;;;4999549;28;20445;-58
2024/01/02 07:45:47;;;;;;;0.60;0.60;;;11.60;66.40;;;;;;5000201;28;20468;-58
2024/01/02 07:48:13;;;;;;;0.70;0.60;;;11.60;66.80;;;;;;5005966;28;20450;-58
2024/01/02 07:50:38;;;;;;;2.03;0.73;;;11.60;65.90;;;;;;5001450;28;20265;-57
2024/01/02 07:53:04;;;;;;;0.83;0.73;;;11.40;66.20;;;;;;5000477;28;20182;-59
2024/01/02 07:55:30;;;;;;;1.90;0.70;;;11.50;66.50;;;;;;5005633;28;20213;-59
2024/01/02 07:57:55;;;;;;;1.03;0.80;;;11.30;66.60;;;;;;5004730;28;20697;-59
2024/01/02 08:00:21;;;;;;;0.70;0.70;;;11.30;67.20;;;;;;5008800;28;20577;-59
2024/01/02 08:02:46;;;;;;;0.60;0.60;;;11.20;67.70;;;;;;5008006;28;20182;-59
2024/01/02 08:05:12;;;;;;;1.67;0.80;;;11.20;67.70;;;;;;5008066;28;20198;-58
2024/01/02 08:07:37;;;;;;;0.60;0.60;;;11.40;68.60;;;;;;5009289;28;20252;-59
2024/01/02 08:10:04;;;;;;;0.50;0.50;;;11.40;67.40;;;;;;5006377;28;20222;-58
2024/01/02 08:12:29;;;;;;;0.60;0.60;;;11.30;67.80;;;;;;5008062;28;20546;-60
2024/01/02 08:14:55;;;;;;;1.80;0.70;;;11.10;68.90;;;;;;5008289;28;20428;-59
2024/01/02 08:17:23;;;;;;;0.90;0.60;;;11.10;68.80;;;;;;5008802;28;20190;-59
2024/01/02 08:19:51;;;;;;;1.37;0.80;;;11.20;69.40;;;;;;5004632;28;20922;-57
2024/01/02 08:22:17;;;;;;;0.60;0.60;;;11.40;68.80;;;;;;5007811;28;20433;-59
2024/01/02 08:24:44;;;;;;;4.10;1.43;;;11.60;68.20;;;;;;5004723;28;20422;-60
2024/01/02 08:27:10;;;;;;;1.23;0.60;;;11.60;68.30;;;;;;5005506;28;20492;-59
2024/01/02 08:29:35;;;;;;;0.63;0.63;;;11.60;68.10;;;;;;5008399;28;20461;-59
2024/01/02 08:32:01;;;;;;;0.50;0.50;;;11.50;67.90;;;;;;5007016;28;20652;-57
2024/01/02 08:34:26;;;;;;;1.03;0.80;;;11.40;68.10;;;;;;5008608;28;20236;-59
2024/01/02 08:36:52;;;;;;;0.80;0.80;;;11.40;68.90;;;;;;5006969;28;20264;-59
2024/01/02 08:39:17;;;;;;;0.70;0.70;;;11.40;68.90;;;;;;5008141;28;20536;-59
2024/01/02 08:41:43;;;;;;;0.90;0.60;;;11.30;69.40;;;;;;5002435;28;20578;-57
2024/01/02 08:44:08;;;;;;;0.77;0.60;;;11.30;69.50;;;;;;5004925;28;20198;-58
2024/01/02 08:46:34;;;;;;;1.57;1.20;;;11.30;69.40;;;;;;5005374;28;20213;-58
2024/01/02 08:49:00;;;;;;;0.70;0.70;;;11.30;69.60;;;;;;5006119;28;20209;-60
2024/01/02 08:51:25;;;;;;;0.70;0.70;;;11.40;69.30;;;;;;4998979;28;20297;-59
2024/01/02 08:53:51;;;;;;;0.90;0.80;;;11.30;69.40;;;;;;5005155;28;20186;-58
2024/01/02 08:56:16;;;;;;;0.70;0.70;;;11.40;69.80;;;;;;5001440;28;20206;-59
2024/01/02 08:58:43;;;;;;;0.87;0.80;;;11.40;69.10;;;;;;5008152;28;20672;-58
2024/01/02 09:01:12;;;;;;;0.83;0.70;;;11.40;69.30;;;;;;5004149;28;20196;-58
2024/01/02 09:03:38;;;;;;;0.60;0.53;;;11.40;69.00;;;;;;5007172;28;20452;-58
2024/01/02 09:06:04;;;;;;;0.57;0.57;;;11.20;69.30;;;;;;5003401;28;20463;-59
2024/01/02 09:08:30;;;;;;;0.70;0.70;;;11.40;69.60;;;;;;5002337;28;20199;-59
2024/01/02 09:10:56;;;;;;;0.70;0.70;;;11.50;69.10;;;;;;5001342;28;20864;-58
2024/01/02 09:13:21;;;;;;;1.53;1.00;;;11.40;69.10;;;;;;5007814;28;20182;-59
2024/01/02 09:15:47;;;;;;;0.67;0.63;;;11.60;68.40;;;;;;5005883;28;20548;-59
2024/01/02 09:18:13;;;;;;;1.07;0.80;;;11.80;68.70;;;;;;5002972;28;20661;-60
2024/01/02 09:20:39;;;;;;;0.63;0.63;;;11.80;68.00;;;;;;5002663;28;20437;-58
2024/01/02 09:23:04;;;;;;;1.00;0.83;;;12.00;67.80;;;;;;5011871;28;20645;-59
2024/01/02 09:25:33;;;;;;;1.70;1.60;;;12.00;67.40;;;;;;5008069;28;20623;-58
2024/01/02 09:28:00;;;;;;;0.60;0.50;;;12.10;67.20;;;;;;5003785;28;20191;-59
2024/01/02 09:30:25;;;;;;;1.23;0.70;;;12.00;66.90;;;;;;5010034;28;20525;-59
2024/01/02 09:32:51;;;;;;;0.63;0.57;;;11.80;68.00;;;;;;5010300;28;20445;-59
2024/01/02 09:35:17;;;;;;;0.70;0.63;;;12.00;67.90;;;;;;5010198;28;20597;-59
2024/01/02 09:37:43;;;;;;;1.43;0.60;;;12.00;67.30;;;;;;5011508;28;20263;-59
2024/01/02 09:40:44;;;;;;;1.00;0.60;;;12.10;67.20;;;;;;5008829;28;20459;-58
2024/01/02 09:43:21;;;;;;;1.63;0.63;;;11.80;67.30;;;;;;5003161;28;20452;-57
2024/01/02 09:46:13;;;;;;;0.80;0.67;;;11.80;68.50;;;;;;5009850;28;20452;-58
2024/01/02 09:48:49;;;;;;;0.60;0.60;;;12.00;68.20;;;;;;5007646;28;20448;-60
2024/01/02 09:51:37;;;;;;;0.70;0.70;;;12.20;67.80;;;;;;5010680;28;20848;-60
2024/01/02 09:54:16;;;;;;;1.03;0.70;;;12.30;67.40;;;;;;4995680;28;20531;-60
2024/01/02 09:56:53;;;;;;;0.70;0.67;;;12.30;66.90;;;;;;5002292;28;21284;-59
2024/01/02 09:59:57;;;;;;;0.80;0.60;;;12.20;67.30;;;;;;5001874;28;20531;-60
2024/01/02 10:02:49;;;;;;;0.80;0.60;;;12.20;67.60;;;;;;5003208;28;20838;-60
2024/01/02 10:05:44;;;;;;;0.70;0.70;;;12.20;67.90;;;;;;5001790;28;20480;-60
2024/01/02 10:08:10;;;;;;;0.70;0.63;;;12.30;67.20;;;;;;5004915;28;20814;-60
2024/01/02 10:10:52;;;;;;;0.70;0.50;;;12.30;67.00;;;;;;5008856;28;20530;-59
2024/01/02 10:13:50;;;;;;;0.80;0.73;;;12.20;67.20;;;;;;5003776;28;20194;-60
2024/01/02 10:16:26;;;;;;;0.70;0.60;;;12.40;67.90;;;;;;5006519;28;20464;-60
2024/01/02 10:19:17;;;;;;;1.47;0.90;;;12.30;67.10;;;;;;5005342;28;20435;-60
2024/01/02 10:22:00;;;;;;;1.10;1.00;;;12.40;67.10;;;;;;4999172;28;20451;-60
2024/01/02 10:24:44;;;;;;;0.70;0.70;;;12.50;67.40;;;;;;5004069;28;20428;-59
2024/01/02 10:27:14;;;;;;;1.00;1.00;;;12.40;66.60;;;;;;5003061;28;20540;-60
2024/01/02 10:30:06;;;;;;;0.60;0.60;;;12.50;66.90;;;;;;5007586;28;20480;-59
2024/01/02 10:32:43;;;;;;;0.50;0.50;;;12.70;66.80;;;;;;5008372;28;20437;-60
2024/01/02 10:35:15;;;;;;;0.60;0.60;;;12.70;66.40;;;;;;5006708;28;20433;-61
2024/01/02 10:37:52;;;;;;;0.90;0.70;;;12.80;66.00;;;;;;5001409;28;20520;-60
2024/01/02 10:40:23;;;;;;;0.90;0.60;;;13.00;65.70;;;;;;5006095;28;20829;-59
2024/01/02 10:43:18;;;;;;;0.70;0.70;;;13.20;65.40;;;;;;5006377;28;20476;-60
2024/01/02 10:45:55;;;;;;;0.73;0.70;;;13.20;64.70;;;;;;5006296;28;20520;-62
2024/01/02 10:48:51;;;;;;;2.00;0.67;;;13.20;65.00;;;;;;5009459;28;20439;-59
2024/01/02 10:51:25;;;;;;;0.90;0.80;;;12.90;65.10;;;;;;5006438;28;20472;-59
2024/01/02 10:54:05;;;;;;;0.60;0.50;;;12.70;66.70;;;;;;5006817;28;20437;-60
2024/01/02 10:57:05;;;;;;;0.50;0.50;;;12.60;66.60;;;;;;5002301;28;20460;-59
2024/01/02 10:59:46;;;;;;;0.83;0.70;;;12.70;66.60;;;;;;5003804;28;20468;-60
2024/01/02 11:02:43;;;;;;;0.70;0.60;;;12.70;66.70;;;;;;5001965;28;20548;-58
2024/01/02 11:05:18;;;;;;;0.70;0.70;;;12.70;66.30;;;;;;5002472;28;20453;-57
2024/01/02 11:07:50;;;;;;;0.87;0.70;;;12.80;66.30;;;;;;5004767;28;20439;-57
2024/01/02 11:10:19;;;;;;;0.90;0.90;;;12.90;66.40;;;;;;5008600;28;20562;-59
2024/01/02 11:13:05;;;;;;;1.63;0.70;;;12.80;66.40;;;;;;5009095;28;21001;-58
2024/01/02 11:15:35;;;;;;;1.10;0.60;;;12.70;66.30;;;;;;4997648;28;20468;-59
2024/01/02 11:18:06;;;;;;;0.60;0.60;;;12.70;66.90;;;;;;5004993;28;20448;-59
2024/01/02 11:21:01;;;;;;;0.83;0.70;;;12.70;66.70;;;;;;5002357;28;20878;-58
2024/01/02 11:23:32;;;;;;;0.90;0.67;;;12.70;66.60;;;;;;5001716;28;20984;-58
2024/01/02 11:26:02;;;;;;;1.83;0.60;;;12.90;66.70;;;;;;5004695;28;20444;-59
2024/01/02 11:28:29;;;;;;;0.50;0.50;;;12.90;66.60;;;;;;5009653;28;20774;-60
2024/01/02 11:30:56;;;;;;;0.60;0.60;;;13.00;66.60;;;;;;5005346;28;20473;-58
2024/01/02 11:33:39;;;;;;;0.70;0.60;;;13.00;65.90;;;;;;5006559;28;20781;-58
2024/01/02 11:36:28;;;;;;;0.60;0.60;;;13.00;66.20;;;;;;5002995;28;20449;-58
2024/01/02 11:39:09;;;;;;;0.60;0.50;;;13.00;66.20;;;;;;5000382;28;20435;-60
2024/01/02 11:41:56;;;;;;;0.63;0.63;;;13.00;66.40;;;;;;4998185;28;20448;-58
2024/01/02 11:44:34;;;;;;;0.67;0.67;;;12.80;66.30;;;;;;4996056;28;20443;-57
2024/01/02 11:47:08;;;;;;;0.60;0.60;;;12.80;66.60;;;;;;5006028;28;20551;-58
2024/01/02 11:49:41;;;;;;;0.60;0.60;;;12.60;66.40;;;;;;5002533;28;20818;-56
2024/01/02 11:52:18;;;;;;;2.10;0.80;;;12.80;66.70;;;;;;5006955;28;20470;-56
2024/01/02 11:55:11;;;;;;;0.60;0.60;;;12.90;66.10;;;;;;5007043;28;20433;-57
2024/01/02 11:57:52;;;;;;;0.60;0.60;;;12.90;66.90;;;;;;5007711;28;20425;-57
2024/01/02 12:01:00;;;;;;;1.03;0.93;;;13.00;66.20;;;;;;5007145;28;20425;-58
2024/01/02 12:03:36;;;;;;;0.70;0.50;;;13.00;65.90;;;;;;5004002;28;20474;-58
2024/01/02 12:06:05;;;;;;;1.60;0.70;;;12.80;65.90;;;;;;4998734;28;20460;-55
2024/01/02 12:08:37;;;;;;;0.73;0.73;;;12.90;66.20;;;;;;5004784;28;20433;-58
2024/01/02 12:11:08;;;;;;;0.90;0.77;;;12.90;66.10;;;;;;5006359;28;20523;-58
2024/01/02 12:14:18;;;;;;;0.70;0.60;;;12.60;66.80;;;;;;5001542;28;20929;-57
2024/01/02 12:16:47;;;;;;;0.60;0.60;;;12.80;66.60;;;;;;4998708;28;20473;-57
2024/01/02 12:19:20;;;;;;;0.70;0.60;;;12.70;66.90;;;;;;5000288;28;21776;-56
2024/01/02 12:21:47;;;;;;;0.70;0.70;;;12.50;66.60;;;;;;4996941;28;20998;-58
2024/01/02 12:24:16;;;;;;;0.60;0.60;;;12.70;66.70;;;;;;4997025;28;20475;-58
2024/01/02 12:26:44;;;;;;;0.93;0.50;;;12.70;66.50;;;;;;5002773;28;20472;-57
2024/01/02 12:29:20;;;;;;;0.87;0.60;;;12.70;66.50;;;;;;5004003;28;20436;-59
2024/01/02 12:31:50;;;;;;;0.63;0.63;;;12.80;66.40;;;;;;5006193;28;20480;-58
2024/01/02 12:34:41;;;;;;;0.70;0.70;;;12.80;65.90;;;;;;5003212;28;20503;-56
2024/01/02 12:37:14;;;;;;;0.90;0.60;;;12.70;65.90;;;;;;5000096;28;21031;-52
2024/01/02 12:39:42;;;;;;;0.70;0.70;;;12.90;66.40;;;;;;4999698;28;20436;-55
2024/01/02 12:42:13;;;;;;;0.67;0.60;;;12.80;66.10;;;;;;5001248;28;20443;-56
2024/01/02 12:44:43;;;;;;;0.60;0.60;;;12.80;66.10;;;;;;5005965;28;20444;-56
2024/01/02 12:47:09;;;;;;;1.97;0.60;;;12.90;66.10;;;;;;5003904;28;20468;-57
2024/01/02 12:49:54;;;;;;;0.57;0.57;;;12.70;65.80;;;;;;5007970;28;20432;-58
2024/01/02 12:52:25;;;;;;;0.60;0.60;;;12.70;66.50;;;;;;5002681;28;20433;-57
2024/01/02 12:54:54;;;;;;;1.00;0.60;;;12.90;66.30;;;;;;4996438;28;20445;-57
2024/01/02 12:57:20;;;;;;;0.67;0.67;;;12.90;65.90;;;;;;5003434;28;20448;-57